createdAt,value
2018-09-30T00:00:01.095Z,12.92
2018-09-30T00:02:29.808Z,12.95
2018-09-30T00:04:58.482Z,12.92
2018-09-30T00:07:27.292Z,12.81
2018-09-30T00:09:56.117Z,12.91
2018-09-30T00:12:24.888Z,12.87
2018-09-30T00:14:53.584Z,12.93
2018-09-30T00:17:22.287Z,12.84
2018-09-30T00:19:51.075Z,12.94
2018-09-30T00:22:19.852Z,12.82
2018-09-30T00:25:55.111Z,12.89
2018-09-30T00:28:23.815Z,12.75
2018-09-30T00:30:52.535Z,12.74
2018-09-30T00:33:21.172Z,12.68
2018-09-30T00:35:49.908Z,12.61
2018-09-30T00:38:18.646Z,12.55
2018-09-30T00:40:47.365Z,12.56
2018-09-30T00:43:16.061Z,12.58
2018-09-30T00:45:44.801Z,12.59
2018-09-30T00:48:13.495Z,12.62
2018-09-30T00:50:42.271Z,12.62
2018-09-30T00:53:10.920Z,12.66
2018-09-30T00:55:39.642Z,12.63
2018-09-30T00:58:08.312Z,12.55
2018-09-30T01:00:37.089Z,12.45
2018-09-30T01:03:05.777Z,12.35
2018-09-30T01:05:34.810Z,12.32
2018-09-30T01:08:03.518Z,12.26
2018-09-30T01:10:32.385Z,12.15
2018-09-30T01:13:01.036Z,12.08
2018-09-30T01:15:29.699Z,11.98
2018-09-30T01:17:58.352Z,11.93
2018-09-30T01:20:27.002Z,11.94
2018-09-30T01:22:55.642Z,11.86
2018-09-30T01:25:24.332Z,11.89
2018-09-30T01:27:53.033Z,11.82
2018-09-30T01:30:21.864Z,11.75
2018-09-30T01:32:50.530Z,11.63
2018-09-30T01:35:19.427Z,11.57
2018-09-30T01:37:48.161Z,11.44
2018-09-30T01:40:16.909Z,11.40
2018-09-30T01:42:45.586Z,11.32
2018-09-30T01:45:14.268Z,11.25
2018-09-30T01:47:42.943Z,11.22
2018-09-30T01:50:11.677Z,11.16
2018-09-30T01:52:50.491Z,11.10
2018-09-30T01:55:19.287Z,11.04
2018-09-30T01:57:47.992Z,11.04
2018-09-30T02:00:17.256Z,11.04
2018-09-30T02:02:46.490Z,11.07
2018-09-30T02:05:15.801Z,11.13
2018-09-30T02:07:44.940Z,11.03
2018-09-30T02:10:13.788Z,10.94
2018-09-30T02:12:42.479Z,10.87
2018-09-30T02:15:11.264Z,10.83
2018-09-30T02:17:41.019Z,10.76
2018-09-30T02:20:09.834Z,10.59
2018-09-30T02:22:38.595Z,10.70
2018-09-30T02:25:07.361Z,10.79
2018-09-30T02:27:36.200Z,10.84
2018-09-30T02:30:06.292Z,10.83
2018-09-30T02:32:35.032Z,10.79
2018-09-30T02:35:03.867Z,10.87
2018-09-30T02:37:32.599Z,10.91
2018-09-30T02:40:01.290Z,10.78
2018-09-30T02:42:29.978Z,10.73
2018-09-30T02:44:58.761Z,10.74
2018-09-30T02:47:27.505Z,10.71
2018-09-30T02:49:56.280Z,10.65
2018-09-30T02:52:25.044Z,10.63
2018-09-30T02:54:53.946Z,10.62
2018-09-30T02:57:22.595Z,10.57
2018-09-30T02:59:51.292Z,10.53
2018-09-30T03:02:20.093Z,10.43
2018-09-30T03:04:48.777Z,10.34
2018-09-30T03:07:22.780Z,10.25
2018-09-30T03:09:51.475Z,10.28
2018-09-30T03:12:20.200Z,10.23
2018-09-30T03:14:48.880Z,10.07
2018-09-30T03:17:17.516Z,9.99
2018-09-30T03:19:46.243Z,9.96
2018-09-30T03:22:14.962Z,9.93
2018-09-30T03:24:43.688Z,9.95
2018-09-30T03:27:12.408Z,9.92
2018-09-30T03:29:41.281Z,9.84
2018-09-30T03:32:10.009Z,9.89
2018-09-30T03:34:38.795Z,9.90
2018-09-30T03:37:07.527Z,9.84
2018-09-30T03:39:36.330Z,9.88
2018-09-30T03:42:04.926Z,9.84
2018-09-30T03:44:33.660Z,9.88
2018-09-30T03:47:02.421Z,9.78
2018-09-30T03:49:31.121Z,9.75
2018-09-30T03:51:59.850Z,9.69
2018-09-30T03:54:28.576Z,9.66
2018-09-30T03:57:00.756Z,9.45
2018-09-30T03:59:35.801Z,9.51
2018-09-30T04:02:09.361Z,9.49
2018-09-30T04:04:38.166Z,9.42
2018-09-30T04:07:07.462Z,9.40
2018-09-30T04:09:36.265Z,9.34
2018-09-30T04:12:05.036Z,9.45
2018-09-30T04:14:33.772Z,9.45
2018-09-30T04:17:02.571Z,9.40
2018-09-30T04:19:31.187Z,9.29
2018-09-30T04:21:59.880Z,9.31
2018-09-30T04:24:28.627Z,9.28
2018-09-30T04:26:57.284Z,9.18
2018-09-30T04:29:25.996Z,9.22
2018-09-30T04:31:54.649Z,9.23
2018-09-30T04:34:23.383Z,9.22
2018-09-30T04:36:52.310Z,9.16
2018-09-30T04:39:21.007Z,9.16
2018-09-30T04:41:49.715Z,9.19
2018-09-30T04:44:18.376Z,9.16
2018-09-30T04:46:47.048Z,9.12
2018-09-30T04:49:15.940Z,9.14
2018-09-30T04:51:44.576Z,9.17
2018-09-30T04:54:13.351Z,9.13
2018-09-30T04:56:42.097Z,9.13
2018-09-30T04:59:11.392Z,9.14
2018-09-30T05:01:40.147Z,9.12
2018-09-30T05:04:08.948Z,9.10
2018-09-30T05:06:37.683Z,9.07
2018-09-30T05:09:07.533Z,9.18
2018-09-30T05:11:36.209Z,9.16
2018-09-30T05:14:04.876Z,9.18
2018-09-30T05:16:33.600Z,9.18
2018-09-30T05:19:02.244Z,9.21
2018-09-30T05:21:30.944Z,9.29
2018-09-30T05:23:59.684Z,9.26
2018-09-30T05:26:28.392Z,9.31
2018-09-30T05:28:57.159Z,9.35
2018-09-30T05:31:26.960Z,9.44
2018-09-30T05:33:55.706Z,9.49
2018-09-30T05:36:24.476Z,9.58
2018-09-30T05:38:53.195Z,9.68
2018-09-30T05:41:21.880Z,9.72
2018-09-30T05:43:50.587Z,9.76
2018-09-30T05:46:19.394Z,9.87
2018-09-30T05:48:48.167Z,9.89
2018-09-30T05:51:16.862Z,9.83
2018-09-30T05:53:45.629Z,9.89
2018-09-30T05:56:14.276Z,9.95
2018-09-30T05:58:43.015Z,10.08
2018-09-30T06:01:11.733Z,10.11
2018-09-30T06:03:40.421Z,10.22
2018-09-30T06:06:09.083Z,10.23
2018-09-30T06:08:37.932Z,10.29
2018-09-30T06:11:06.602Z,10.33
2018-09-30T06:13:35.308Z,10.39
2018-09-30T06:16:04.111Z,10.47
2018-09-30T06:18:32.726Z,10.55
2018-09-30T06:21:01.395Z,10.63
2018-09-30T06:23:30.029Z,10.67
2018-09-30T06:25:58.737Z,10.73
2018-09-30T06:28:27.477Z,10.80
2018-09-30T06:30:56.148Z,10.79
2018-09-30T06:33:24.884Z,10.91
2018-09-30T06:35:53.616Z,10.94
2018-09-30T06:38:22.260Z,10.98
2018-09-30T06:40:50.918Z,10.96
2018-09-30T06:43:19.742Z,11.08
2018-09-30T06:45:48.597Z,11.11
2018-09-30T06:48:17.332Z,11.20
2018-09-30T06:50:46.023Z,11.22
2018-09-30T06:53:14.728Z,11.24
2018-09-30T06:55:43.419Z,11.32
2018-09-30T06:58:12.080Z,11.27
2018-09-30T07:00:40.858Z,11.27
2018-09-30T07:03:09.921Z,11.24
2018-09-30T07:05:38.568Z,11.26
2018-09-30T07:08:07.243Z,11.35
2018-09-30T07:10:36.000Z,11.51
2018-09-30T07:13:04.860Z,11.58
2018-09-30T07:15:33.511Z,11.78
2018-09-30T07:18:02.236Z,11.89
2018-09-30T07:20:31.024Z,11.84
2018-09-30T07:22:59.785Z,11.93
2018-09-30T07:25:28.444Z,12.06
2018-09-30T07:27:57.250Z,12.13
2018-09-30T07:30:26.101Z,12.27
2018-09-30T07:32:54.756Z,12.45
2018-09-30T07:35:23.489Z,12.70
2018-09-30T07:37:52.207Z,12.86
2018-09-30T07:40:21.001Z,12.95
2018-09-30T07:42:49.802Z,13.01
2018-09-30T07:45:19.432Z,13.14
2018-09-30T07:47:48.100Z,13.14
2018-09-30T07:50:16.782Z,13.27
2018-09-30T07:52:45.427Z,13.37
2018-09-30T07:55:14.143Z,13.58
2018-09-30T07:57:42.890Z,13.57
2018-09-30T08:00:14.250Z,13.63
2018-09-30T08:02:42.902Z,13.68
2018-09-30T08:05:11.693Z,13.68
2018-09-30T08:07:40.428Z,13.73
2018-09-30T08:10:09.148Z,13.82
2018-09-30T08:12:37.807Z,14.01
2018-09-30T08:15:06.536Z,14.18
2018-09-30T08:17:35.257Z,14.31
2018-09-30T08:20:04.088Z,14.58
2018-09-30T08:22:32.758Z,14.75
2018-09-30T08:25:01.451Z,14.75
2018-09-30T08:27:30.100Z,14.63
2018-09-30T08:29:58.958Z,14.48
2018-09-30T08:32:27.723Z,14.65
2018-09-30T08:34:56.400Z,14.57
2018-09-30T08:37:30.352Z,14.68
2018-09-30T08:39:59.056Z,14.73
2018-09-30T08:42:27.732Z,14.48
2018-09-30T08:44:56.455Z,14.61
2018-09-30T08:47:25.254Z,14.51
2018-09-30T08:49:53.961Z,14.33
2018-09-30T08:52:22.633Z,14.19
2018-09-30T08:54:51.422Z,14.10
2018-09-30T08:57:20.290Z,14.01
2018-09-30T08:59:49.040Z,14.17
2018-09-30T09:02:17.722Z,14.24
2018-09-30T09:04:46.377Z,14.38
2018-09-30T09:07:15.044Z,14.36
2018-09-30T09:09:44.888Z,14.29
2018-09-30T09:12:13.574Z,14.38
2018-09-30T09:14:42.253Z,14.50
2018-09-30T09:17:10.996Z,14.53
2018-09-30T09:19:40.102Z,14.67
2018-09-30T09:22:08.862Z,14.79
2018-09-30T09:24:37.696Z,14.84
2018-09-30T09:27:06.365Z,14.98
2018-09-30T09:29:35.116Z,15.10
2018-09-30T09:32:03.869Z,15.46
2018-09-30T09:35:36.579Z,15.64
2018-09-30T09:38:05.327Z,15.45
2018-09-30T09:40:34.078Z,15.61
2018-09-30T09:43:02.810Z,15.50
2018-09-30T09:45:31.864Z,15.50
2018-09-30T09:48:00.595Z,15.69
2018-09-30T09:50:29.350Z,15.80
2018-09-30T09:52:58.024Z,15.82
2018-09-30T09:55:26.704Z,15.68
2018-09-30T09:57:55.562Z,15.53
2018-09-30T10:00:29.472Z,15.44
2018-09-30T10:02:58.237Z,15.42
2018-09-30T10:05:27.152Z,15.34
2018-09-30T10:07:55.908Z,15.47
2018-09-30T10:10:24.593Z,15.36
2018-09-30T10:12:53.260Z,15.39
2018-09-30T10:15:22.465Z,15.42
2018-09-30T10:17:51.216Z,15.48
2018-09-30T10:20:19.930Z,15.43
2018-09-30T10:22:49.520Z,15.36
2018-09-30T10:25:18.340Z,15.39
2018-09-30T10:27:47.129Z,15.45
2018-09-30T10:30:17.292Z,15.42
2018-09-30T10:32:46.013Z,15.39
2018-09-30T10:35:14.778Z,15.48
2018-09-30T10:37:43.445Z,15.57
2018-09-30T10:40:12.409Z,15.63
2018-09-30T10:42:41.265Z,15.48
2018-09-30T10:45:10.044Z,15.39
2018-09-30T10:47:38.688Z,15.33
2018-09-30T10:50:07.516Z,15.14
2018-09-30T10:52:36.215Z,15.19
2018-09-30T10:55:04.993Z,15.17
2018-09-30T10:57:33.737Z,15.20
2018-09-30T11:00:03.660Z,15.13
2018-09-30T11:02:32.416Z,15.12
2018-09-30T11:05:01.058Z,14.98
2018-09-30T11:07:29.780Z,14.78
2018-09-30T11:09:58.591Z,14.79
2018-09-30T11:12:27.403Z,14.68
2018-09-30T11:14:56.127Z,14.61
2018-09-30T11:17:24.817Z,14.61
2018-09-30T11:19:53.813Z,14.52
2018-09-30T11:22:22.558Z,14.51
2018-09-30T11:24:51.245Z,14.34
2018-09-30T11:27:19.975Z,14.49
2018-09-30T11:29:48.727Z,14.58
2018-09-30T11:32:17.392Z,14.69
2018-09-30T11:34:46.132Z,14.77
2018-09-30T11:37:14.865Z,14.55
2018-09-30T11:39:43.549Z,14.57
2018-09-30T11:42:12.244Z,14.57
2018-09-30T11:44:40.928Z,14.47
2018-09-30T11:47:09.612Z,14.51
2018-09-30T11:49:38.357Z,14.50
2018-09-30T11:52:07.008Z,14.41
2018-09-30T11:54:35.753Z,14.27
2018-09-30T11:57:04.456Z,14.35
2018-09-30T11:59:33.140Z,14.29
2018-09-30T12:02:01.836Z,14.32
2018-09-30T12:04:30.701Z,14.48
2018-09-30T12:06:59.362Z,14.49
2018-09-30T12:09:28.075Z,14.52
2018-09-30T12:11:56.760Z,14.67
2018-09-30T12:14:25.671Z,14.74
2018-09-30T12:16:54.360Z,14.86
2018-09-30T12:19:23.066Z,15.10
2018-09-30T12:21:52.008Z,15.32
2018-09-30T12:24:20.748Z,15.38
2018-09-30T12:26:49.452Z,15.36
2018-09-30T12:29:18.166Z,15.58
2018-09-30T12:31:47.015Z,15.62
2018-09-30T12:34:15.736Z,15.83
2018-09-30T12:36:44.394Z,15.66
2018-09-30T12:39:13.211Z,15.72
2018-09-30T12:41:41.973Z,15.83
2018-09-30T12:44:10.650Z,15.78
2018-09-30T12:46:39.391Z,15.84
2018-09-30T12:49:08.071Z,15.73
2018-09-30T12:51:36.770Z,15.63
2018-09-30T12:54:05.559Z,15.49
2018-09-30T12:56:34.400Z,15.61
2018-09-30T12:59:03.142Z,15.68
2018-09-30T13:01:31.882Z,15.50
2018-09-30T13:04:00.534Z,15.48
2018-09-30T13:06:29.274Z,15.55
2018-09-30T13:08:58.034Z,15.49
2018-09-30T13:11:26.821Z,15.46
2018-09-30T13:13:55.546Z,15.45
2018-09-30T13:16:24.261Z,15.40
2018-09-30T13:18:52.928Z,15.53
2018-09-30T13:21:21.670Z,15.57
2018-09-30T13:23:50.366Z,15.64
2018-09-30T13:26:19.108Z,15.55
2018-09-30T13:28:47.887Z,15.64
2018-09-30T13:31:16.581Z,15.49
2018-09-30T13:33:45.328Z,15.40
2018-09-30T13:36:14.097Z,15.12
2018-09-30T13:38:42.801Z,15.24
2018-09-30T13:41:11.582Z,15.20
2018-09-30T13:43:40.254Z,15.20
2018-09-30T13:46:08.988Z,15.18
2018-09-30T13:48:37.829Z,15.12
2018-09-30T13:51:06.115Z,15.17
2018-09-30T13:53:34.843Z,15.10
2018-09-30T13:56:03.634Z,15.14
2018-09-30T13:58:32.321Z,15.09
2018-09-30T14:01:01.170Z,15.10
2018-09-30T14:03:29.929Z,15.16
2018-09-30T14:05:58.640Z,15.18
2018-09-30T14:08:27.468Z,15.29
2018-09-30T14:10:56.227Z,15.32
2018-09-30T14:13:24.976Z,15.16
2018-09-30T14:15:53.804Z,15.27
2018-09-30T14:18:22.492Z,15.30
2018-09-30T14:20:51.210Z,15.38
2018-09-30T14:23:19.889Z,15.04
2018-09-30T14:25:48.706Z,14.93
2018-09-30T14:28:17.505Z,14.92
2018-09-30T14:30:46.167Z,14.90
2018-09-30T14:33:14.853Z,14.77
2018-09-30T14:35:43.590Z,14.68
2018-09-30T14:38:12.275Z,14.62
2018-09-30T14:40:40.936Z,14.47
2018-09-30T14:43:09.687Z,14.45
2018-09-30T14:45:38.368Z,14.34
2018-09-30T14:48:07.261Z,14.14
2018-09-30T14:50:36.027Z,14.14
2018-09-30T14:53:04.820Z,14.13
2018-09-30T14:55:33.581Z,14.11
2018-09-30T14:58:02.295Z,14.04
2018-09-30T15:00:31.266Z,14.08
2018-09-30T15:02:59.929Z,14.02
2018-09-30T15:05:28.666Z,13.84
2018-09-30T15:07:57.370Z,14.02
2018-09-30T15:10:26.197Z,14.07
2018-09-30T15:12:54.860Z,13.99
2018-09-30T15:15:23.611Z,13.93
2018-09-30T15:17:52.341Z,13.84
2018-09-30T15:20:21.081Z,13.61
2018-09-30T15:22:49.723Z,13.57
2018-09-30T15:25:18.549Z,13.44
2018-09-30T15:27:47.352Z,13.36
2018-09-30T15:30:16.036Z,13.29
2018-09-30T15:32:44.741Z,13.15
2018-09-30T15:35:13.415Z,13.04
2018-09-30T15:37:42.079Z,12.99
2018-09-30T15:40:10.790Z,12.86
2018-09-30T15:42:39.583Z,12.74
2018-09-30T15:45:08.337Z,12.72
2018-09-30T15:47:37.096Z,12.70
2018-09-30T15:50:06.343Z,12.64
2018-09-30T15:52:35.095Z,12.55
2018-09-30T15:55:03.845Z,12.44
2018-09-30T15:57:32.567Z,12.42
2018-09-30T16:00:01.619Z,12.26
2018-09-30T16:02:30.280Z,12.14
2018-09-30T16:04:59.244Z,12.08
2018-09-30T16:07:28.096Z,12.11
2018-09-30T16:09:56.888Z,12.14
2018-09-30T16:12:25.618Z,12.14
2018-09-30T16:14:54.634Z,12.08
2018-09-30T16:17:23.367Z,12.03
2018-09-30T16:19:52.120Z,11.95
2018-09-30T16:22:20.943Z,11.90
2018-09-30T16:24:49.718Z,11.70
2018-09-30T16:27:18.495Z,11.76
2018-09-30T16:29:47.264Z,11.73
2018-09-30T16:32:15.985Z,11.74
2018-09-30T16:34:44.914Z,11.78
2018-09-30T16:37:14.285Z,11.81
2018-09-30T16:39:43.033Z,11.72
2018-09-30T16:42:12.146Z,11.67
2018-09-30T16:44:40.927Z,11.67
2018-09-30T16:47:10.145Z,11.60
2018-09-30T16:49:39.040Z,11.62
2018-09-30T16:52:13.624Z,11.63
2018-09-30T16:54:42.544Z,11.61
2018-09-30T16:57:11.368Z,11.67
2018-09-30T16:59:40.246Z,11.71
2018-09-30T17:02:09.746Z,11.63
2018-09-30T17:04:38.478Z,11.73
2018-09-30T17:07:07.157Z,11.70
2018-09-30T17:09:35.929Z,11.65
2018-09-30T17:12:04.686Z,11.69
2018-09-30T17:14:33.465Z,11.65
2018-09-30T17:17:02.332Z,11.65
2018-09-30T17:19:31.020Z,11.66
2018-09-30T17:21:59.800Z,11.66
2018-09-30T17:24:28.577Z,11.69
2018-09-30T17:26:57.361Z,11.65
2018-09-30T17:29:26.060Z,11.61
2018-09-30T17:31:54.883Z,11.71
2018-09-30T17:34:23.585Z,11.64
2018-09-30T17:36:52.343Z,11.63
2018-09-30T17:39:21.060Z,11.57
2018-09-30T17:41:49.873Z,11.56
